sensor_id;sensor_type;location;lat;lon;timestamp;temperature;humidity
59307;DHT22;47983;53.016;-2.260;2023-06-05T00:01:50;12.40;99.90
59307;DHT22;47983;53.016;-2.260;2023-06-05T00:04:18;12.30;99.90
59307;DHT22;47983;53.016;-2.260;2023-06-05T00:06:46;12.30;99.90
59307;DHT22;47983;53.016;-2.260;2023-06-05T00:09:14;12.30;99.90
59307;DHT22;47983;53.016;-2.260;2023-06-05T00:11:42;12.20;99.90
59307;DHT22;47983;53.016;-2.260;2023-06-05T00:14:10;12.20;99.90
59307;DHT22;47983;53.016;-2.260;2023-06-05T00:16:38;12.20;99.90
59307;DHT22;47983;53.016;-2.260;2023-06-05T00:19:06;12.20;99.90
59307;DHT22;47983;53.016;-2.260;2023-06-05T00:21:34;12.10;99.90
59307;DHT22;47983;53.016;-2.260;2023-06-05T00:24:03;12.20;99.90
59307;DHT22;47983;53.016;-2.260;2023-06-05T00:26:31;12.10;99.90
59307;DHT22;47983;53.016;-2.260;2023-06-05T00:28:59;12.10;99.90
59307;DHT22;47983;53.016;-2.260;2023-06-05T00:31:27;12.00;99.90
59307;DHT22;47983;53.016;-2.260;2023-06-05T00:33:55;12.00;99.90
59307;DHT22;47983;53.016;-2.260;2023-06-05T00:36:23;12.00;99.90
59307;DHT22;47983;53.016;-2.260;2023-06-05T00:38:52;11.90;99.90
59307;DHT22;47983;53.016;-2.260;2023-06-05T00:41:21;11.90;99.90
59307;DHT22;47983;53.016;-2.260;2023-06-05T00:43:50;11.90;99.90
59307;DHT22;47983;53.016;-2.260;2023-06-05T00:46:18;11.90;99.90
59307;DHT22;47983;53.016;-2.260;2023-06-05T00:51:17;11.90;99.90
59307;DHT22;47983;53.016;-2.260;2023-06-05T00:53:47;11.90;99.90
59307;DHT22;47983;53.016;-2.260;2023-06-05T00:56:15;11.90;99.90
59307;DHT22;47983;53.016;-2.260;2023-06-05T00:58:47;11.90;99.90
59307;DHT22;47983;53.016;-2.260;2023-06-05T01:01:17;11.80;99.90
59307;DHT22;47983;53.016;-2.260;2023-06-05T01:03:45;11.90;99.90
59307;DHT22;47983;53.016;-2.260;2023-06-05T01:06:13;11.80;99.90
59307;DHT22;47983;53.016;-2.260;2023-06-05T01:08:46;11.70;99.90
59307;DHT22;47983;53.016;-2.260;2023-06-05T01:16:48;11.70;99.90
59307;DHT22;47983;53.016;-2.260;2023-06-05T01:19:19;11.60;99.90
59307;DHT22;47983;53.016;-2.260;2023-06-05T01:21:47;11.60;99.90
59307;DHT22;47983;53.016;-2.260;2023-06-05T01:24:17;11.60;99.90
59307;DHT22;47983;53.016;-2.260;2023-06-05T01:32:02;11.60;99.90
59307;DHT22;47983;53.016;-2.260;2023-06-05T01:34:34;11.60;99.90
59307;DHT22;47983;53.016;-2.260;2023-06-05T01:37:04;11.60;99.90
59307;DHT22;47983;53.016;-2.260;2023-06-05T01:39:36;11.60;99.90
59307;DHT22;47983;53.016;-2.260;2023-06-05T01:42:05;11.60;99.90
59307;DHT22;47983;53.016;-2.260;2023-06-05T01:44:34;11.60;99.90
59307;DHT22;47983;53.016;-2.260;2023-06-05T01:47:02;11.60;99.90
59307;DHT22;47983;53.016;-2.260;2023-06-05T01:49:30;11.60;99.90
59307;DHT22;47983;53.016;-2.260;2023-06-05T01:51:59;11.70;99.90
59307;DHT22;47983;53.016;-2.260;2023-06-05T01:54:27;11.70;99.90
59307;DHT22;47983;53.016;-2.260;2023-06-05T01:56:55;11.70;99.90
59307;DHT22;47983;53.016;-2.260;2023-06-05T01:59:23;11.70;99.90
59307;DHT22;47983;53.016;-2.260;2023-06-05T02:01:51;11.70;99.90
59307;DHT22;47983;53.016;-2.260;2023-06-05T02:04:20;11.70;99.90
59307;DHT22;47983;53.016;-2.260;2023-06-05T02:06:49;11.70;99.90
59307;DHT22;47983;53.016;-2.260;2023-06-05T02:11:52;11.80;99.90
59307;DHT22;47983;53.016;-2.260;2023-06-05T02:14:21;11.80;99.90
59307;DHT22;47983;53.016;-2.260;2023-06-05T02:16:50;11.70;99.90
59307;DHT22;47983;53.016;-2.260;2023-06-05T02:19:18;11.70;99.90
59307;DHT22;47983;53.016;-2.260;2023-06-05T02:21:46;11.80;99.90
59307;DHT22;47983;53.016;-2.260;2023-06-05T02:24:16;11.80;99.90
59307;DHT22;47983;53.016;-2.260;2023-06-05T02:26:44;11.80;99.90
59307;DHT22;47983;53.016;-2.260;2023-06-05T02:29:12;11.80;99.90
59307;DHT22;47983;53.016;-2.260;2023-06-05T02:31:40;11.80;99.90
59307;DHT22;47983;53.016;-2.260;2023-06-05T02:34:08;11.80;99.90
59307;DHT22;47983;53.016;-2.260;2023-06-05T02:36:36;11.80;99.90
59307;DHT22;47983;53.016;-2.260;2023-06-05T02:39:04;11.80;99.90
59307;DHT22;47983;53.016;-2.260;2023-06-05T02:41:32;11.80;99.90
59307;DHT22;47983;53.016;-2.260;2023-06-05T02:44:04;11.80;99.90
59307;DHT22;47983;53.016;-2.260;2023-06-05T02:46:32;11.70;99.90
59307;DHT22;47983;53.016;-2.260;2023-06-05T02:49:02;11.70;99.90
59307;DHT22;47983;53.016;-2.260;2023-06-05T02:51:30;11.70;99.90
59307;DHT22;47983;53.016;-2.260;2023-06-05T02:53:58;11.70;99.90
59307;DHT22;47983;53.016;-2.260;2023-06-05T02:56:26;11.60;99.90
59307;DHT22;47983;53.016;-2.260;2023-06-05T02:58:55;11.60;99.90
59307;DHT22;47983;53.016;-2.260;2023-06-05T03:01:25;11.60;99.90
59307;DHT22;47983;53.016;-2.260;2023-06-05T03:03:56;11.60;99.90
59307;DHT22;47983;53.016;-2.260;2023-06-05T03:06:25;11.60;99.90
59307;DHT22;47983;53.016;-2.260;2023-06-05T03:08:57;11.60;99.90
59307;DHT22;47983;53.016;-2.260;2023-06-05T03:11:26;11.60;99.90
59307;DHT22;47983;53.016;-2.260;2023-06-05T03:13:55;11.60;99.90
59307;DHT22;47983;53.016;-2.260;2023-06-05T03:16:25;11.60;99.90
59307;DHT22;47983;53.016;-2.260;2023-06-05T03:19:00;11.60;99.90
59307;DHT22;47983;53.016;-2.260;2023-06-05T03:21:29;11.50;99.90
59307;DHT22;47983;53.016;-2.260;2023-06-05T03:23:56;11.50;99.90
59307;DHT22;47983;53.016;-2.260;2023-06-05T03:26:24;11.50;99.90
59307;DHT22;47983;53.016;-2.260;2023-06-05T03:28:53;11.40;99.90
59307;DHT22;47983;53.016;-2.260;2023-06-05T03:31:22;11.50;99.90
59307;DHT22;47983;53.016;-2.260;2023-06-05T03:33:50;11.40;99.90
59307;DHT22;47983;53.016;-2.260;2023-06-05T03:36:19;11.50;99.90
59307;DHT22;47983;53.016;-2.260;2023-06-05T03:38:50;11.50;99.90
59307;DHT22;47983;53.016;-2.260;2023-06-05T03:41:19;11.50;99.90
59307;DHT22;47983;53.016;-2.260;2023-06-05T03:43:48;11.50;99.90
59307;DHT22;47983;53.016;-2.260;2023-06-05T03:46:19;11.50;99.90
59307;DHT22;47983;53.016;-2.260;2023-06-05T03:48:51;11.60;99.90
59307;DHT22;47983;53.016;-2.260;2023-06-05T03:51:27;11.60;99.90
59307;DHT22;47983;53.016;-2.260;2023-06-05T03:53:58;11.50;99.90
59307;DHT22;47983;53.016;-2.260;2023-06-05T03:56:26;11.50;99.90
59307;DHT22;47983;53.016;-2.260;2023-06-05T03:59:05;11.50;99.90
59307;DHT22;47983;53.016;-2.260;2023-06-05T04:01:51;11.50;99.90
59307;DHT22;47983;53.016;-2.260;2023-06-05T04:04:19;11.60;99.90
59307;DHT22;47983;53.016;-2.260;2023-06-05T04:06:48;11.50;99.90
59307;DHT22;47983;53.016;-2.260;2023-06-05T04:09:19;11.50;99.90
59307;DHT22;47983;53.016;-2.260;2023-06-05T04:11:47;11.50;99.90
59307;DHT22;47983;53.016;-2.260;2023-06-05T04:14:15;11.50;99.90
59307;DHT22;47983;53.016;-2.260;2023-06-05T04:16:44;11.50;99.90
59307;DHT22;47983;53.016;-2.260;2023-06-05T04:19:19;11.50;99.90
59307;DHT22;47983;53.016;-2.260;2023-06-05T04:21:52;11.60;99.90
59307;DHT22;47983;53.016;-2.260;2023-06-05T04:24:23;11.50;99.90
59307;DHT22;47983;53.016;-2.260;2023-06-05T04:26:53;11.60;99.90
59307;DHT22;47983;53.016;-2.260;2023-06-05T04:29:21;11.60;99.90
59307;DHT22;47983;53.016;-2.260;2023-06-05T04:31:49;11.50;99.90
59307;DHT22;47983;53.016;-2.260;2023-06-05T04:34:18;11.50;99.90
59307;DHT22;47983;53.016;-2.260;2023-06-05T04:36:47;11.50;99.90
59307;DHT22;47983;53.016;-2.260;2023-06-05T04:39:19;11.50;99.90
59307;DHT22;47983;53.016;-2.260;2023-06-05T04:41:47;11.40;99.90
59307;DHT22;47983;53.016;-2.260;2023-06-05T04:44:31;11.50;99.90
59307;DHT22;47983;53.016;-2.260;2023-06-05T04:46:59;11.70;99.90
59307;DHT22;47983;53.016;-2.260;2023-06-05T04:49:28;11.60;99.90
59307;DHT22;47983;53.016;-2.260;2023-06-05T04:51:57;11.60;99.90
59307;DHT22;47983;53.016;-2.260;2023-06-05T04:54:27;11.60;99.90
59307;DHT22;47983;53.016;-2.260;2023-06-05T04:56:55;11.70;99.90
59307;DHT22;47983;53.016;-2.260;2023-06-05T04:59:23;11.70;99.90
59307;DHT22;47983;53.016;-2.260;2023-06-05T05:01:51;11.70;99.90
59307;DHT22;47983;53.016;-2.260;2023-06-05T05:04:21;11.70;99.90
59307;DHT22;47983;53.016;-2.260;2023-06-05T05:06:51;11.80;99.90
59307;DHT22;47983;53.016;-2.260;2023-06-05T05:09:21;11.80;99.90
59307;DHT22;47983;53.016;-2.260;2023-06-05T05:11:50;11.90;99.90
59307;DHT22;47983;53.016;-2.260;2023-06-05T05:14:18;11.80;99.90
59307;DHT22;47983;53.016;-2.260;2023-06-05T05:16:46;11.90;99.90
59307;DHT22;47983;53.016;-2.260;2023-06-05T05:19:17;11.90;99.90
59307;DHT22;47983;53.016;-2.260;2023-06-05T05:21:46;11.90;99.90
59307;DHT22;47983;53.016;-2.260;2023-06-05T05:24:15;11.90;99.90
59307;DHT22;47983;53.016;-2.260;2023-06-05T05:26:43;11.90;99.90
59307;DHT22;47983;53.016;-2.260;2023-06-05T05:29:11;11.80;99.90
59307;DHT22;47983;53.016;-2.260;2023-06-05T05:31:39;11.80;99.90
59307;DHT22;47983;53.016;-2.260;2023-06-05T05:34:07;11.80;99.90
59307;DHT22;47983;53.016;-2.260;2023-06-05T05:36:36;11.80;99.90
59307;DHT22;47983;53.016;-2.260;2023-06-05T05:39:05;11.80;99.90
59307;DHT22;47983;53.016;-2.260;2023-06-05T05:41:35;11.90;99.90
59307;DHT22;47983;53.016;-2.260;2023-06-05T05:44:03;11.90;99.90
59307;DHT22;47983;53.016;-2.260;2023-06-05T05:46:31;11.90;99.90
59307;DHT22;47983;53.016;-2.260;2023-06-05T05:48:59;11.90;99.90
59307;DHT22;47983;53.016;-2.260;2023-06-05T05:51:27;12.00;99.90
59307;DHT22;47983;53.016;-2.260;2023-06-05T05:53:56;12.00;99.90
59307;DHT22;47983;53.016;-2.260;2023-06-05T05:56:24;12.10;99.90
59307;DHT22;47983;53.016;-2.260;2023-06-05T05:58:52;12.10;99.90
59307;DHT22;47983;53.016;-2.260;2023-06-05T06:01:20;12.10;99.90
59307;DHT22;47983;53.016;-2.260;2023-06-05T06:03:49;12.00;99.90
59307;DHT22;47983;53.016;-2.260;2023-06-05T06:06:17;12.10;99.90
59307;DHT22;47983;53.016;-2.260;2023-06-05T06:08:45;12.10;99.90
59307;DHT22;47983;53.016;-2.260;2023-06-05T06:11:13;12.10;99.90
59307;DHT22;47983;53.016;-2.260;2023-06-05T06:13:41;12.10;99.90
59307;DHT22;47983;53.016;-2.260;2023-06-05T06:16:09;12.10;99.90
59307;DHT22;47983;53.016;-2.260;2023-06-05T06:18:37;12.20;99.90
59307;DHT22;47983;53.016;-2.260;2023-06-05T06:21:05;12.30;99.90
59307;DHT22;47983;53.016;-2.260;2023-06-05T06:23:33;12.30;99.90
59307;DHT22;47983;53.016;-2.260;2023-06-05T06:26:01;12.30;99.90
59307;DHT22;47983;53.016;-2.260;2023-06-05T06:28:34;12.30;99.90
59307;DHT22;47983;53.016;-2.260;2023-06-05T06:31:02;12.40;99.90
59307;DHT22;47983;53.016;-2.260;2023-06-05T06:33:30;12.40;99.90
59307;DHT22;47983;53.016;-2.260;2023-06-05T06:35:59;12.40;99.90
59307;DHT22;47983;53.016;-2.260;2023-06-05T06:38:28;12.40;99.90
59307;DHT22;47983;53.016;-2.260;2023-06-05T06:40:58;12.40;99.90
59307;DHT22;47983;53.016;-2.260;2023-06-05T06:43:26;12.40;99.90
59307;DHT22;47983;53.016;-2.260;2023-06-05T06:46:02;12.40;99.90
59307;DHT22;47983;53.016;-2.260;2023-06-05T06:48:30;12.40;99.90
59307;DHT22;47983;53.016;-2.260;2023-06-05T06:50:58;12.40;99.90
59307;DHT22;47983;53.016;-2.260;2023-06-05T06:53:26;12.40;99.90
59307;DHT22;47983;53.016;-2.260;2023-06-05T06:55:54;12.50;99.90
59307;DHT22;47983;53.016;-2.260;2023-06-05T06:58:23;12.50;99.90
59307;DHT22;47983;53.016;-2.260;2023-06-05T07:00:51;12.50;99.90
59307;DHT22;47983;53.016;-2.260;2023-06-05T07:03:19;12.60;99.90
59307;DHT22;47983;53.016;-2.260;2023-06-05T07:05:47;12.60;99.90
59307;DHT22;47983;53.016;-2.260;2023-06-05T07:08:15;12.70;99.90
59307;DHT22;47983;53.016;-2.260;2023-06-05T07:10:43;12.70;99.90
59307;DHT22;47983;53.016;-2.260;2023-06-05T07:13:12;12.80;99.90
59307;DHT22;47983;53.016;-2.260;2023-06-05T07:15:40;12.90;99.90
59307;DHT22;47983;53.016;-2.260;2023-06-05T07:18:07;13.00;99.90
59307;DHT22;47983;53.016;-2.260;2023-06-05T07:20:38;13.00;99.90
59307;DHT22;47983;53.016;-2.260;2023-06-05T07:23:08;13.10;99.90
59307;DHT22;47983;53.016;-2.260;2023-06-05T07:25:35;13.10;99.90
59307;DHT22;47983;53.016;-2.260;2023-06-05T07:28:09;13.20;99.90
59307;DHT22;47983;53.016;-2.260;2023-06-05T07:30:40;13.20;99.90
59307;DHT22;47983;53.016;-2.260;2023-06-05T07:33:10;13.20;99.90
59307;DHT22;47983;53.016;-2.260;2023-06-05T07:35:55;13.30;99.90
59307;DHT22;47983;53.016;-2.260;2023-06-05T07:38:23;13.30;99.90
59307;DHT22;47983;53.016;-2.260;2023-06-05T07:40:52;13.30;99.90
59307;DHT22;47983;53.016;-2.260;2023-06-05T07:43:19;13.30;99.90
59307;DHT22;47983;53.016;-2.260;2023-06-05T07:45:47;13.20;99.90
59307;DHT22;47983;53.016;-2.260;2023-06-05T07:48:15;13.30;99.90
59307;DHT22;47983;53.016;-2.260;2023-06-05T07:50:43;13.30;99.90
59307;DHT22;47983;53.016;-2.260;2023-06-05T07:53:11;13.30;99.90
59307;DHT22;47983;53.016;-2.260;2023-06-05T07:55:39;13.30;99.90
59307;DHT22;47983;53.016;-2.260;2023-06-05T07:58:07;13.30;99.90
59307;DHT22;47983;53.016;-2.260;2023-06-05T08:00:35;13.40;99.90
59307;DHT22;47983;53.016;-2.260;2023-06-05T08:03:03;13.30;99.90
59307;DHT22;47983;53.016;-2.260;2023-06-05T08:05:34;13.50;99.90
59307;DHT22;47983;53.016;-2.260;2023-06-05T08:08:03;13.50;99.90
59307;DHT22;47983;53.016;-2.260;2023-06-05T08:10:31;13.60;99.90
59307;DHT22;47983;53.016;-2.260;2023-06-05T08:12:59;13.70;99.90
59307;DHT22;47983;53.016;-2.260;2023-06-05T08:15:26;13.80;99.90
59307;DHT22;47983;53.016;-2.260;2023-06-05T08:17:54;13.90;99.90
59307;DHT22;47983;53.016;-2.260;2023-06-05T08:20:22;13.90;99.90
59307;DHT22;47983;53.016;-2.260;2023-06-05T08:22:50;14.00;99.90
59307;DHT22;47983;53.016;-2.260;2023-06-05T08:25:18;14.10;99.90
59307;DHT22;47983;53.016;-2.260;2023-06-05T08:27:47;14.10;99.90
59307;DHT22;47983;53.016;-2.260;2023-06-05T08:30:16;14.30;99.90
59307;DHT22;47983;53.016;-2.260;2023-06-05T08:32:44;14.30;99.90
59307;DHT22;47983;53.016;-2.260;2023-06-05T08:35:13;14.40;99.90
59307;DHT22;47983;53.016;-2.260;2023-06-05T08:37:41;14.60;99.90
59307;DHT22;47983;53.016;-2.260;2023-06-05T08:40:10;14.60;99.90
59307;DHT22;47983;53.016;-2.260;2023-06-05T08:42:40;14.80;99.90
59307;DHT22;47983;53.016;-2.260;2023-06-05T08:45:08;14.80;99.90
59307;DHT22;47983;53.016;-2.260;2023-06-05T08:47:37;14.90;99.90
59307;DHT22;47983;53.016;-2.260;2023-06-05T08:50:10;15.00;99.90
59307;DHT22;47983;53.016;-2.260;2023-06-05T08:52:39;15.00;99.90
59307;DHT22;47983;53.016;-2.260;2023-06-05T08:55:10;15.10;99.90
59307;DHT22;47983;53.016;-2.260;2023-06-05T08:57:42;15.30;99.90
59307;DHT22;47983;53.016;-2.260;2023-06-05T09:00:10;15.40;99.90
59307;DHT22;47983;53.016;-2.260;2023-06-05T09:02:41;15.60;99.90
59307;DHT22;47983;53.016;-2.260;2023-06-05T09:05:15;15.60;99.90
59307;DHT22;47983;53.016;-2.260;2023-06-05T09:07:42;15.80;99.90
59307;DHT22;47983;53.016;-2.260;2023-06-05T09:10:26;16.00;99.90
59307;DHT22;47983;53.016;-2.260;2023-06-05T09:12:57;16.10;99.90
59307;DHT22;47983;53.016;-2.260;2023-06-05T09:15:28;16.20;99.90
59307;DHT22;47983;53.016;-2.260;2023-06-05T09:18:09;16.30;99.90
59307;DHT22;47983;53.016;-2.260;2023-06-05T09:23:27;16.40;99.90
59307;DHT22;47983;53.016;-2.260;2023-06-05T09:25:58;16.40;99.90
59307;DHT22;47983;53.016;-2.260;2023-06-05T09:28:26;16.50;99.90
59307;DHT22;47983;53.016;-2.260;2023-06-05T09:31:02;16.50;99.90
59307;DHT22;47983;53.016;-2.260;2023-06-05T09:33:32;16.50;99.90
59307;DHT22;47983;53.016;-2.260;2023-06-05T09:36:12;16.60;99.90
59307;DHT22;47983;53.016;-2.260;2023-06-05T09:38:41;16.70;99.90
59307;DHT22;47983;53.016;-2.260;2023-06-05T09:41:10;16.80;99.90
59307;DHT22;47983;53.016;-2.260;2023-06-05T09:43:38;16.80;99.90
59307;DHT22;47983;53.016;-2.260;2023-06-05T09:46:11;16.80;99.90
59307;DHT22;47983;53.016;-2.260;2023-06-05T09:48:41;16.90;99.90
59307;DHT22;47983;53.016;-2.260;2023-06-05T09:51:15;16.80;99.90
59307;DHT22;47983;53.016;-2.260;2023-06-05T09:53:48;16.80;99.90
59307;DHT22;47983;53.016;-2.260;2023-06-05T09:56:18;16.80;99.90
59307;DHT22;47983;53.016;-2.260;2023-06-05T09:58:51;16.80;99.90
59307;DHT22;47983;53.016;-2.260;2023-06-05T10:01:23;16.90;99.90
59307;DHT22;47983;53.016;-2.260;2023-06-05T10:04:02;17.00;99.90
59307;DHT22;47983;53.016;-2.260;2023-06-05T10:06:33;17.10;99.90
59307;DHT22;47983;53.016;-2.260;2023-06-05T10:09:01;17.20;99.90
59307;DHT22;47983;53.016;-2.260;2023-06-05T10:11:30;17.30;99.90
59307;DHT22;47983;53.016;-2.260;2023-06-05T10:14:00;17.40;99.90
59307;DHT22;47983;53.016;-2.260;2023-06-05T10:16:29;17.50;99.90
59307;DHT22;47983;53.016;-2.260;2023-06-05T10:18:59;17.60;99.90
59307;DHT22;47983;53.016;-2.260;2023-06-05T10:21:27;17.70;99.90
59307;DHT22;47983;53.016;-2.260;2023-06-05T10:24:05;17.70;99.90
59307;DHT22;47983;53.016;-2.260;2023-06-05T10:32:03;18.10;99.90
59307;DHT22;47983;53.016;-2.260;2023-06-05T10:40:17;18.20;99.10
59307;DHT22;47983;53.016;-2.260;2023-06-05T10:42:45;18.30;99.00
59307;DHT22;47983;53.016;-2.260;2023-06-05T10:45:13;18.40;99.40
59307;DHT22;47983;53.016;-2.260;2023-06-05T10:47:56;18.60;99.00
59307;DHT22;47983;53.016;-2.260;2023-06-05T10:50:25;18.80;98.70
59307;DHT22;47983;53.016;-2.260;2023-06-05T10:52:55;18.90;98.00
59307;DHT22;47983;53.016;-2.260;2023-06-05T10:55:25;19.10;97.40
59307;DHT22;47983;53.016;-2.260;2023-06-05T10:58:11;19.10;96.80
59307;DHT22;47983;53.016;-2.260;2023-06-05T11:03:53;19.40;96.90
59307;DHT22;47983;53.016;-2.260;2023-06-05T11:06:22;19.50;96.30
59307;DHT22;47983;53.016;-2.260;2023-06-05T11:09:11;20.40;96.20
59307;DHT22;47983;53.016;-2.260;2023-06-05T11:12:09;19.80;95.50
59307;DHT22;47983;53.016;-2.260;2023-06-05T11:14:47;19.80;95.60
59307;DHT22;47983;53.016;-2.260;2023-06-05T11:17:30;19.80;95.00
59307;DHT22;47983;53.016;-2.260;2023-06-05T11:19:58;19.80;95.40
59307;DHT22;47983;53.016;-2.260;2023-06-05T11:22:26;20.00;94.50
59307;DHT22;47983;53.016;-2.260;2023-06-05T11:27:43;20.10;94.40
59307;DHT22;47983;53.016;-2.260;2023-06-05T11:30:15;20.20;94.20
59307;DHT22;47983;53.016;-2.260;2023-06-05T11:33:06;20.30;93.90
59307;DHT22;47983;53.016;-2.260;2023-06-05T11:35:36;20.30;94.00
59307;DHT22;47983;53.016;-2.260;2023-06-05T11:40:36;20.40;94.00
59307;DHT22;47983;53.016;-2.260;2023-06-05T11:43:05;20.60;93.50
59307;DHT22;47983;53.016;-2.260;2023-06-05T11:45:35;20.90;93.20
59307;DHT22;47983;53.016;-2.260;2023-06-05T11:48:05;20.90;93.40
59307;DHT22;47983;53.016;-2.260;2023-06-05T11:50:33;21.20;93.40
59307;DHT22;47983;53.016;-2.260;2023-06-05T11:53:10;21.40;92.50
59307;DHT22;47983;53.016;-2.260;2023-06-05T11:55:41;21.90;92.60
59307;DHT22;47983;53.016;-2.260;2023-06-05T12:00:50;22.20;92.30
59307;DHT22;47983;53.016;-2.260;2023-06-05T12:03:19;22.40;90.50
59307;DHT22;47983;53.016;-2.260;2023-06-05T12:05:48;22.50;89.60
59307;DHT22;47983;53.016;-2.260;2023-06-05T12:08:29;22.60;88.70
59307;DHT22;47983;53.016;-2.260;2023-06-05T12:11:03;22.80;88.60
59307;DHT22;47983;53.016;-2.260;2023-06-05T12:13:50;23.00;87.20
59307;DHT22;47983;53.016;-2.260;2023-06-05T12:16:19;23.20;84.70
59307;DHT22;47983;53.016;-2.260;2023-06-05T12:18:48;23.10;84.20
59307;DHT22;47983;53.016;-2.260;2023-06-05T12:21:28;23.20;84.30
59307;DHT22;47983;53.016;-2.260;2023-06-05T12:24:04;23.30;84.90
59307;DHT22;47983;53.016;-2.260;2023-06-05T12:29:25;23.60;81.80
59307;DHT22;47983;53.016;-2.260;2023-06-05T12:31:55;23.60;82.40
59307;DHT22;47983;53.016;-2.260;2023-06-05T12:34:46;23.70;82.20
59307;DHT22;47983;53.016;-2.260;2023-06-05T12:37:32;23.70;82.00
59307;DHT22;47983;53.016;-2.260;2023-06-05T12:40:03;23.90;81.70
59307;DHT22;47983;53.016;-2.260;2023-06-05T12:42:48;24.00;80.20
59307;DHT22;47983;53.016;-2.260;2023-06-05T12:45:16;24.20;79.90
59307;DHT22;47983;53.016;-2.260;2023-06-05T12:47:44;24.30;79.20
59307;DHT22;47983;53.016;-2.260;2023-06-05T12:50:13;24.40;78.60
59307;DHT22;47983;53.016;-2.260;2023-06-05T12:52:41;24.50;78.80
59307;DHT22;47983;53.016;-2.260;2023-06-05T12:55:11;24.80;78.00
59307;DHT22;47983;53.016;-2.260;2023-06-05T12:57:39;24.90;77.00
59307;DHT22;47983;53.016;-2.260;2023-06-05T13:00:08;25.10;76.70
59307;DHT22;47983;53.016;-2.260;2023-06-05T13:02:42;25.20;76.70
59307;DHT22;47983;53.016;-2.260;2023-06-05T13:05:15;25.30;75.50
59307;DHT22;47983;53.016;-2.260;2023-06-05T13:07:43;25.60;75.90
59307;DHT22;47983;53.016;-2.260;2023-06-05T13:10:12;25.70;75.10
59307;DHT22;47983;53.016;-2.260;2023-06-05T13:12:40;25.70;73.20
59307;DHT22;47983;53.016;-2.260;2023-06-05T13:15:10;25.80;71.20
59307;DHT22;47983;53.016;-2.260;2023-06-05T13:17:39;25.80;71.70
59307;DHT22;47983;53.016;-2.260;2023-06-05T13:20:07;25.90;72.40
59307;DHT22;47983;53.016;-2.260;2023-06-05T13:22:40;26.00;70.70
59307;DHT22;47983;53.016;-2.260;2023-06-05T13:25:09;26.10;71.70
59307;DHT22;47983;53.016;-2.260;2023-06-05T13:27:37;26.10;70.60
59307;DHT22;47983;53.016;-2.260;2023-06-05T13:30:06;26.20;71.10
59307;DHT22;47983;53.016;-2.260;2023-06-05T13:32:35;26.40;72.20
59307;DHT22;47983;53.016;-2.260;2023-06-05T13:35:06;26.60;70.60
59307;DHT22;47983;53.016;-2.260;2023-06-05T13:37:36;26.60;69.70
59307;DHT22;47983;53.016;-2.260;2023-06-05T13:40:05;26.50;69.50
59307;DHT22;47983;53.016;-2.260;2023-06-05T13:42:34;26.50;69.70
59307;DHT22;47983;53.016;-2.260;2023-06-05T13:45:03;26.60;68.80
59307;DHT22;47983;53.016;-2.260;2023-06-05T13:47:32;26.60;69.10
59307;DHT22;47983;53.016;-2.260;2023-06-05T13:50:00;26.50;69.30
59307;DHT22;47983;53.016;-2.260;2023-06-05T13:52:29;26.50;69.60
59307;DHT22;47983;53.016;-2.260;2023-06-05T13:54:57;26.60;69.30
59307;DHT22;47983;53.016;-2.260;2023-06-05T13:57:25;26.50;68.00
59307;DHT22;47983;53.016;-2.260;2023-06-05T13:59:53;26.40;68.10
59307;DHT22;47983;53.016;-2.260;2023-06-05T14:02:23;26.40;68.00
59307;DHT22;47983;53.016;-2.260;2023-06-05T14:04:51;26.50;67.80
59307;DHT22;47983;53.016;-2.260;2023-06-05T14:07:19;26.60;67.90
59307;DHT22;47983;53.016;-2.260;2023-06-05T14:09:47;26.60;67.10
59307;DHT22;47983;53.016;-2.260;2023-06-05T14:12:16;26.60;67.70
59307;DHT22;47983;53.016;-2.260;2023-06-05T14:14:45;26.60;67.50
59307;DHT22;47983;53.016;-2.260;2023-06-05T14:17:13;26.70;67.60
59307;DHT22;47983;53.016;-2.260;2023-06-05T14:19:41;26.70;67.10
59307;DHT22;47983;53.016;-2.260;2023-06-05T14:22:09;26.80;67.00
59307;DHT22;47983;53.016;-2.260;2023-06-05T14:24:39;26.80;66.20
59307;DHT22;47983;53.016;-2.260;2023-06-05T14:27:08;26.80;66.50
59307;DHT22;47983;53.016;-2.260;2023-06-05T14:29:37;26.80;66.40
59307;DHT22;47983;53.016;-2.260;2023-06-05T14:32:05;26.70;66.00
59307;DHT22;47983;53.016;-2.260;2023-06-05T14:34:33;27.20;63.90
59307;DHT22;47983;53.016;-2.260;2023-06-05T14:37:02;27.20;64.80
59307;DHT22;47983;53.016;-2.260;2023-06-05T14:39:30;27.20;64.40
59307;DHT22;47983;53.016;-2.260;2023-06-05T14:41:57;27.10;64.80
59307;DHT22;47983;53.016;-2.260;2023-06-05T14:44:25;26.90;64.70
59307;DHT22;47983;53.016;-2.260;2023-06-05T14:46:54;27.10;64.90
59307;DHT22;47983;53.016;-2.260;2023-06-05T14:49:24;26.70;65.30
59307;DHT22;47983;53.016;-2.260;2023-06-05T14:51:52;26.80;64.90
59307;DHT22;47983;53.016;-2.260;2023-06-05T14:54:20;26.80;64.50
59307;DHT22;47983;53.016;-2.260;2023-06-05T14:56:48;26.80;64.50
59307;DHT22;47983;53.016;-2.260;2023-06-05T14:59:16;26.80;64.50
59307;DHT22;47983;53.016;-2.260;2023-06-05T15:01:46;26.90;65.00
59307;DHT22;47983;53.016;-2.260;2023-06-05T15:04:14;27.10;64.50
59307;DHT22;47983;53.016;-2.260;2023-06-05T15:06:43;27.10;63.50
59307;DHT22;47983;53.016;-2.260;2023-06-05T15:09:11;27.10;64.10
59307;DHT22;47983;53.016;-2.260;2023-06-05T15:11:39;27.00;64.20
59307;DHT22;47983;53.016;-2.260;2023-06-05T15:14:07;26.90;64.20
59307;DHT22;47983;53.016;-2.260;2023-06-05T15:16:35;26.80;64.90
59307;DHT22;47983;53.016;-2.260;2023-06-05T15:19:10;26.80;64.70
59307;DHT22;47983;53.016;-2.260;2023-06-05T15:21:38;26.90;64.60
59307;DHT22;47983;53.016;-2.260;2023-06-05T15:24:06;27.00;64.00
59307;DHT22;47983;53.016;-2.260;2023-06-05T15:26:35;27.10;64.20
59307;DHT22;47983;53.016;-2.260;2023-06-05T15:29:03;27.00;64.30
59307;DHT22;47983;53.016;-2.260;2023-06-05T15:31:31;26.90;64.80
59307;DHT22;47983;53.016;-2.260;2023-06-05T15:33:59;27.00;65.70
59307;DHT22;47983;53.016;-2.260;2023-06-05T15:36:27;26.90;64.60
59307;DHT22;47983;53.016;-2.260;2023-06-05T15:38:56;27.00;64.60
59307;DHT22;47983;53.016;-2.260;2023-06-05T15:41:25;27.00;65.60
59307;DHT22;47983;53.016;-2.260;2023-06-05T15:43:53;27.00;64.20
59307;DHT22;47983;53.016;-2.260;2023-06-05T15:46:21;27.10;63.90
59307;DHT22;47983;53.016;-2.260;2023-06-05T15:48:49;27.20;63.80
59307;DHT22;47983;53.016;-2.260;2023-06-05T15:51:17;27.30;63.40
59307;DHT22;47983;53.016;-2.260;2023-06-05T15:53:45;27.40;64.00
59307;DHT22;47983;53.016;-2.260;2023-06-05T15:56:30;27.30;63.60
59307;DHT22;47983;53.016;-2.260;2023-06-05T15:58:59;27.30;64.30
59307;DHT22;47983;53.016;-2.260;2023-06-05T16:01:26;27.10;64.10
59307;DHT22;47983;53.016;-2.260;2023-06-05T16:03:55;27.10;63.80
59307;DHT22;47983;53.016;-2.260;2023-06-05T16:06:23;27.00;63.70
59307;DHT22;47983;53.016;-2.260;2023-06-05T16:08:51;26.90;64.10
59307;DHT22;47983;53.016;-2.260;2023-06-05T16:11:19;26.90;64.10
59307;DHT22;47983;53.016;-2.260;2023-06-05T16:13:47;27.00;64.00
59307;DHT22;47983;53.016;-2.260;2023-06-05T16:16:15;27.00;63.90